Terminal Aerodrome Forecast
Issued by NWS Goodland, KS

Home | Current Version | Previous Version | Text Only | Print | Product List | Glossary On
Versions: 1 2 3 4 5 6 7 8 9 10 11 12 13 14
198
FTUS43 KGLD 190334 AAB
TAFGLD
TAF AMD
KGLD 190334Z 1904/1924 05014KT P6SM SCT090 BKN200
     FM190800 18010KT P6SM FEW090 SCT200
     FM191800 18017G25KT P6SM FEW100 FEW200=

USA.gov is the U.S. government's official web portal to all federal, state and local government web resources and services.